Terminal Aerodrome Forecast
Issued by NWS

Home | Current Version | Previous Version | Text Only | Print | Product List | Glossary On
Versions: 1 2 3 4 5 6 7 8 9 10 11 12 13 14
000
FTPA31 PHFO 280532
TAFHOG
TAF
PHOG 280532Z 2806/2906 05018G26KT P6SM FEW030 SCT045
     FM281200 05012KT P6SM FEW030 SCT045
     FM281900 05026G32KT P6SM FEW030 SCT045=

USA.gov is the U.S. government's official web portal to all federal, state and local government web resources and services.